Map

Track Data

SID SEASON NUMBER BASIN SUBBASIN NAME ISO_TIME NATURE LAT LON WMO_WIND WMO_PRES WMO_AGENCY TRACK_TYPE DIST2LAND LANDFALL IFLAG USA_AGENCY USA_ATCF_ID USA_LAT USA_LON USA_RECORD USA_STATUS USA_WIND USA_PRES USA_SSHS USA_R34_NE USA_R34_SE USA_R34_SW USA_R34_NW USA_R50_NE USA_R50_SE USA_R50_SW USA_R50_NW USA_R64_NE USA_R64_SE USA_R64_SW USA_R64_NW USA_POCI USA_ROCI USA_RMW USA_EYE TOKYO_LAT TOKYO_LON TOKYO_GRADE TOKYO_WIND TOKYO_PRES TOKYO_R50_DIR TOKYO_R50_LONG TOKYO_R50_SHORT TOKYO_R30_DIR TOKYO_R30_LONG TOKYO_R30_SHORT TOKYO_LAND CMA_LAT CMA_LON CMA_CAT CMA_WIND CMA_PRES HKO_LAT HKO_LON HKO_CAT HKO_WIND HKO_PRES NEWDELHI_LAT NEWDELHI_LON NEWDELHI_GRADE NEWDELHI_WIND NEWDELHI_PRES NEWDELHI_CI NEWDELHI_DP NEWDELHI_POCI REUNION_LAT REUNION_LON REUNION_TYPE REUNION_WIND REUNION_PRES REUNION_TNUM REUNION_CI REUNION_RMW REUNION_R34_NE REUNION_R34_SE REUNION_R34_SW REUNION_R34_NW REUNION_R50_NE REUNION_R50_SE REUNION_R50_SW REUNION_R50_NW REUNION_R64_NE REUNION_R64_SE REUNION_R64_SW REUNION_R64_NW BOM_LAT BOM_LON BOM_TYPE BOM_WIND BOM_PRES BOM_TNUM BOM_CI BOM_RMW BOM_R34_NE BOM_R34_SE BOM_R34_SW BOM_R34_NW BOM_R50_NE BOM_R50_SE BOM_R50_SW BOM_R50_NW BOM_R64_NE BOM_R64_SE BOM_R64_SW BOM_R64_NW BOM_ROCI BOM_POCI BOM_EYE BOM_POS_METHOD BOM_PRES_METHOD NADI_LAT NADI_LON NADI_CAT NADI_WIND NADI_PRES WELLINGTON_LAT WELLINGTON_LON WELLINGTON_WIND WELLINGTON_PRES DS824_LAT DS824_LON DS824_STAGE DS824_WIND DS824_PRES TD9636_LAT TD9636_LON TD9636_STAGE TD9636_WIND TD9636_PRES TD9635_LAT TD9635_LON TD9635_WIND TD9635_PRES TD9635_ROCI NEUMANN_LAT NEUMANN_LON NEUMANN_CLASS NEUMANN_WIND NEUMANN_PRES MLC_LAT MLC_LON MLC_CLASS MLC_WIND MLC_PRES USA_GUST BOM_GUST BOM_GUST_PER REUNION_GUST REUNION_GUST_PER USA_SEAHGT USA_SEARAD_NE USA_SEARAD_SE USA_SEARAD_SW USA_SEARAD_NW STORM_SPEED STORM_DIR
1994081S11154 1994 23 SP EA USHA 1994-03-22 00:00:00 TS -11.3000 154.300 main 401 401 O___________O_ jtwc_sh SH251994 -11.3000 154.300 15 -1 -11.3000 154.300 TC 15 3 68
1994081S11154 1994 23 SP EA USHA 1994-03-22 03:00:00 TS -11.2400 154.453 main 420 420 P___________P_ SH251994 -11.2400 154.453 15 -1 -11.2400 154.453 TC 15 3 71
1994081S11154 1994 23 SP EA USHA 1994-03-22 06:00:00 TS -11.2000 154.600 main 431 425 O___________O_ jtwc_sh SH251994 -11.2000 154.600 15 -1 -11.2000 154.600 TC 15 3 80
1994081S11154 1994 23 SP EA USHA 1994-03-22 09:00:00 TS -11.1925 154.742 main 425 411 P___________P_ SH251994 -11.1925 154.742 17 -1 -11.1925 154.742 TC 17 3 90
1994081S11154 1994 23 SP EA USHA 1994-03-22 12:00:00 TS -11.2000 154.900 main 411 398 O___________O_ jtwc_sh SH251994 -11.2000 154.900 20 -1 -11.2000 154.900 TC 20 3 93
1994081S11154 1994 23 SP EA USHA 1994-03-22 15:00:00 TS -11.2075 155.085 main 398 385 P___________P_ SH251994 -11.2075 155.085 20 -1 -11.2075 155.085 TC 20 4 90
1994081S11154 1994 23 SP EA USHA 1994-03-22 18:00:00 TS -11.2000 155.300 main 385 374 O___________O_ jtwc_sh SH251994 -11.2000 155.300 20 -1 -11.2000 155.300 TC 20 5 84
1994081S11154 1994 23 SP EA USHA 1994-03-22 21:00:00 TS -11.1575 155.543 main 374 349 P___________P_ SH251994 -11.1575 155.543 20 -1 -11.1575 155.543 TC 20 5 78
1994081S11154 1994 23 SP EA USHA 1994-03-23 00:00:00 TS -11.1000 155.800 main 349 329 O___________O_ jtwc_sh SH251994 -11.1000 155.800 20 -1 -11.1000 155.800 TC 20 5 77
1994081S11154 1994 23 SP EA USHA 1994-03-23 03:00:00 TS -11.0425 156.043 main 329 315 P___________P_ SH251994 -11.0425 156.043 22 -1 -11.0425 156.043 TC 22 5 78
1994081S11154 1994 23 SP EA USHA 1994-03-23 06:00:00 TS -11.0000 156.300 main 315 299 O___________O_ jtwc_sh SH251994 -11.0000 156.300 25 -1 -11.0000 156.300 TC 25 5 84
1994081S11154 1994 23 SP EA USHA 1994-03-23 09:00:00 TS -10.9850 156.585 main 299 286 P___________P_ SH251994 -10.9850 156.585 25 -1 -10.9850 156.585 TC 25 6 90
1994081S11154 1994 23 SP EA USHA 1994-03-23 12:00:00 TS -11.0000 156.900 main 286 276 O___________O_ jtwc_sh SH251994 -11.0000 156.900 25 -1 -11.0000 156.900 TC 25 6 95
1994081S11154 1994 23 SP EA USHA 1994-03-23 15:00:00 TS -11.0425 157.235 main 276 274 P___________P_ SH251994 -11.0425 157.235 25 -1 -11.0425 157.235 TC 25 7 98
1994081S11154 1994 23 SP EA USHA 1994-03-23 18:00:00 TS -11.1000 157.600 main 280 244 O___________O_ jtwc_sh SH251994 -11.1000 157.600 25 -1 -11.1000 157.600 TC 25 7 98
1994081S11154 1994 23 SP EA USHA 1994-03-23 21:00:00 TS -11.1424 157.978 main 244 219 P___________P_ SH251994 -11.1424 157.978 25 -1 -11.1424 157.978 TC 25 8 97
1994081S11154 1994 23 SP EA USHA 1994-03-24 00:00:00 TS -11.2000 158.400 main 219 194 O___________O_ jtwc_sh SH251994 -11.2000 158.400 25 -1 -11.2000 158.400 TC 25 9 100
1994081S11154 1994 23 SP EA USHA 1994-03-24 03:00:00 TS -11.2925 158.885 main 194 189 P___________P_ SH251994 -11.2925 158.885 27 -1 -11.2925 158.885 TC 27 9 107
1994081S11154 1994 23 SP EA USHA 1994-03-24 06:00:00 TS -11.4667 159.289 main 198 193 O_______O___O_ jtwc_sh SH251994 -11.4000 159.400 30 -1 -12.0000 158.400 30 997 -11.4000 159.400 TC 30 9 114
1994081S11154 1994 23 SP EA USHA 1994-03-24 09:00:00 TS -11.6555 159.722 main 213 195 P_______P___P_ SH251994 -11.4923 159.885 30 -1 -12.3083 159.069 30 997 -11.4923 159.885 TC 30 10 113
1994081S11154 1994 23 SP MM USHA 1994-03-24 12:00:00 TS -11.8455 160.182 main 195 181 O_______O___O_ jtwc_sh SH251994 -11.6000 160.400 30 -1 -12.5000 159.600 30 997 -11.6000 160.400 TC 30 10 111
1994081S11154 1994 23 SP MM USHA 1994-03-24 15:00:00 TS -11.9904 160.631 main 185 159 P_______P___P_ SH251994 -11.7349 160.970 30 -1 -12.5013 159.953 32 996 -11.7349 160.970 TC 30 11 102
1994081S11154 1994 23 SP MM USHA 1994-03-24 18:00:00 TS -12.0667 161.233 main 159 145 O_______O___O_ jtwc_sh SH251994 -11.9000 161.600 30 -1 -12.4000 160.500 35 995 -11.9000 161.600 TC 30 14 96
1994081S11154 1994 23 SP MM USHA 1994-03-24 21:00:00 TS -12.1371 162.087 main 145 145 P_______P___P_ SH251994 -12.0850 162.293 32 -1 -12.2413 161.676 35 993 -12.0850 162.293 TC 32 17 97
1994081S11154 1994 23 SP MM USHA 1994-03-25 00:00:00 TS -12.2667 163.000 main 184 184 O_______O___O_ jtwc_sh SH251994 -12.3000 163.000 35 0 -12.2000 163.000 35 992 -12.3000 163.000 TC 35 17 103
1994081S11154 1994 23 SP MM USHA 1994-03-25 03:00:00 TS -12.5173 163.795 main 250 250 P_______P___P_ SH251994 -12.5348 163.665 37 0 -12.4822 164.054 37 991 -12.5348 163.665 TC 37 16 111
1994081S11154 1994 23 SP MM USHA 1994-03-25 06:00:00 TS -12.8333 164.500 main 311 241 O_______O___O_ jtwc_sh SH251994 -12.8000 164.300 40 0 -12.9000 164.900 40 990 -12.8000 164.300 TC 40 14 116
1994081S11154 1994 23 SP MM USHA 1994-03-25 09:00:00 TS -13.1348 165.121 main 241 181 P_______P___P_ SH251994 -13.0774 164.923 42 0 -13.2494 165.518 40 989 -13.0774 164.923 TC 42 13 119
1994081S11154 1994 23 SP MM USHA 1994-03-25 12:00:00 TS -13.4667 165.667 main 165 109 O_______O___O_ jtwc_sh SH251994 -13.4000 165.500 45 0 -13.6000 166.000 40 989 -13.4000 165.500 TC 45 13 124
1994081S11154 1994 23 SP MM USHA 1994-03-25 15:00:00 TS -13.8274 166.189 main 109 55 P_______P___P_ SH251994 -13.7773 166.023 47 0 -13.9274 166.523 40 988 -13.7773 166.023 TC 47 12 128
1994081S11154 1994 23 SP MM USHA 1994-03-25 18:00:00 TS -14.2333 166.667 main 57 33 O_______O___O_ jtwc_sh SH251994 -14.2000 166.500 50 0 -14.3000 167.000 40 988 -14.2000 166.500 TC 50 13 133
1994081S11154 1994 23 SP MM USHA 1994-03-25 21:00:00 TS -14.6874 167.125 main 33 24 P_______P___P_ SH251994 -14.6350 166.973 50 0 -14.7924 167.430 42 987 -14.6350 166.973 TC 50 13 138
1994081S11154 1994 23 SP MM USHA 1994-03-26 00:00:00 TS -15.1667 167.533 main 42 42 O_______O___O_ jtwc_sh SH251994 -15.1000 167.400 50 0 -15.3000 167.800 45 987 -15.1000 167.400 TC 50 12 142
1994081S11154 1994 23 SP MM USHA 1994-03-26 03:00:00 TS -15.6207 167.879 main 69 46 P_______P___P_ SH251994 -15.5924 167.765 50 0 -15.6774 168.108 47 986 -15.5924 167.765 TC 50 11 146
1994081S11154 1994 23 SP MM USHA 1994-03-26 06:00:00 TS -16.1000 168.200 main 48 44 O_______O___O_ jtwc_sh SH251994 -16.1000 168.100 50 0 -16.1000 168.400 50 985 -16.1000 168.100 TC 50 12 147
1994081S11154 1994 23 SP MM USHA 1994-03-26 09:00:00 TS -16.6550 168.567 main 85 85 P_______P___P_ SH251994 -16.6000 168.465 52 0 -16.7651 168.772 52 982 -16.6000 168.465 TC 52 13 149
1994081S11154 1994 23 SP MM USHA 1994-03-26 12:00:00 TS -17.2000 168.900 main 134 134 O_______O___O_ jtwc_sh SH251994 -17.1000 168.800 55 0 -17.4000 169.100 55 980 -17.1000 168.800 TC 55 12 150
1994081S11154 1994 23 SP MM USHA 1994-03-26 15:00:00 TS -17.6433 169.172 main 186 186 P_______P___P_ SH251994 -17.6000 169.102 55 0 -17.7299 169.310 55 980 -17.6000 169.102 TC 55 10 154
1994081S11154 1994 23 SP MM USHA 1994-03-26 18:00:00 TS -18.0667 169.333 main 231 231 O_______O___O_ jtwc_sh SH251994 -18.1000 169.300 55 0 -18.0000 169.400 55 980 -18.1000 169.300 TC 55 9 168
1994081S11154 1994 23 SP MM USHA 1994-03-26 21:00:00 TS -18.5449 169.374 main 271 271 P_______P___P_ SH251994 -18.6074 169.353 52 0 -18.4199 169.417 52 982 -18.6074 169.353 TC 52 10 182
1994081S11154 1994 23 SP MM USHA 1994-03-27 00:00:00 TS -19.0333 169.300 main 311 311 O_______O___O_ jtwc_sh SH251994 -19.1000 169.300 50 0 -18.9000 169.300 50 985 -19.1000 169.300 TC 50 10 192
1994081S11154 1994 23 SP MM USHA 1994-03-27 03:00:00 TS -19.5176 169.146 main 352 328 P_______P___P_ SH251994 -19.5650 169.215 50 0 -19.4227 169.008 47 986 -19.5650 169.215 TC 50 10 199
1994081S11154 1994 23 SP MM USHA 1994-03-27 06:00:00 TS -19.9667 168.967 main 320 288 O_______O___O_ jtwc_sh SH251994 -20.0000 169.100 50 0 -19.9000 168.700 45 987 -20.0000 169.100 TC 50 9 198
1994081S11154 1994 23 SP MM USHA 1994-03-27 09:00:00 TS -20.3483 168.854 main 288 250 P_______P___P_ SH251994 -20.4150 169.000 47 0 -20.2149 168.562 45 987 -20.4150 169.000 TC 47 8 194
1994081S11154 1994 23 SP MM USHA 1994-03-27 12:00:00 TS -20.7000 168.767 main 250 221 O_______O___O_ jtwc_sh SH251994 -20.8000 168.900 45 0 -20.5000 168.500 45 987 -20.8000 168.900 TC 45 7 193
1994081S11154 1994 23 SP MM USHA 1994-03-27 15:00:00 TS -21.0667 168.678 main 214 187 P_______P___P_ SH251994 -21.1575 168.800 40 0 -20.8850 168.435 42 988 -21.1575 168.800 TC 40 8 192
1994081S11154 1994 23 SP MM USHA 1994-03-27 18:00:00 TS -21.4333 168.600 main 187 160 O_______O___O_ jtwc_sh SH251994 -21.5000 168.700 35 0 -21.3000 168.400 40 990 -21.5000 168.700 TC 35 7 190
1994081S11154 1994 23 SP MM USHA 1994-03-27 21:00:00 TS -21.7975 168.536 main 160 154 P_______P___P_ SH251994 -21.8500 168.607 32 -1 -21.6925 168.392 40 990 -21.8500 168.607 TC 32 7 190
1994081S11154 1994 23 SP MM USHA 1994-03-28 00:00:00 TS -22.1667 168.467 main 154 143 O_______O___O_ jtwc_sh SH251994 -22.2000 168.500 30 -1 -22.1000 168.400 40 990 -22.2000 168.500 TC 30 8 192
1994081S11154 1994 23 SP MM USHA 1994-03-28 03:00:00 TS -22.5500 168.372 main 145 137 P_______P___P_ SH251994 -22.5500 168.357 27 -1 -22.5500 168.400 40 990 -22.5500 168.357 TC 27 8 193
1994081S11154 1994 23 SP MM USHA 1994-03-28 06:00:00 TS -22.9333 168.267 main 149 145 O_______O___O_ jtwc_sh SH251994 -22.9000 168.200 25 -1 -23.0000 168.400 40 990 -22.9000 168.200 TC 25 8 194
1994081S11154 1994 23 SP MM USHA 1994-03-28 09:00:00 TS -23.3050 168.172 main 166 166 P_______P___P_ SH251994 -23.2500 168.050 25 -1 -23.4150 168.415 37 991 -23.2500 168.050 TC 25 8 194
1994081S11154 1994 23 SP MM USHA 1994-03-28 12:00:00 TS -23.6667 168.067 main 190 183 O_______O___O_ jtwc_sh SH251994 -23.6000 167.900 25 -1 -23.8000 168.400 35 992 -23.6000 167.900 TC 25 7 196
1994081S11154 1994 23 SP MM USHA 1994-03-28 15:00:00 TS -24.0116 167.953 main 211 205 P_______P___P_ SH251994 -23.9500 167.750 25 -1 -24.1348 168.360 35 993 -23.9500 167.750 TC 25 7 199
1994081S11154 1994 23 SP MM USHA 1994-03-28 18:00:00 TS -24.3667 167.800 main 241 241 O_______O___O_ jtwc_sh SH251994 -24.3000 167.600 25 -1 -24.5000 168.200 35 995 -24.3000 167.600 TC 25 8 207
1994081S11154 1994 23 SP MM USHA 1994-03-28 21:00:00 TS -24.7643 167.535 main 275 275 P_______P___P_ SH251994 -24.6425 167.435 22 -1 -25.0080 167.734 32 996 -24.6425 167.435 TC 22 9 207
1994081S11154 1994 23 SP MM USHA 1994-03-29 00:00:00 TS -25.2000 167.340 30 997 wellington main 315 315 O_______O___O_ jtwc_sh SH251994 -25.0000 167.300 20 -1 -25.5000 167.400 30 997 -25.0000 167.300 TC 20 9 185
1994081S11154 1994 23 SP MM USHA 1994-03-29 03:00:00 TS -25.6176 167.444 main 361 361 P_______P___P_ SH251994 -25.3900 167.230 20 -1 -25.8452 167.659 27 999 -25.3900 167.230 TC 20 9 153
1994081S11154 1994 23 SP MM USHA 1994-03-29 06:00:00 TS -26.0000 167.800 25 1002 wellington main 412 412 O_______O___O_ jtwc_sh SH251994 -25.8000 167.200 20 -1 -26.1000 168.100 25 1002 -25.8000 167.200 TC 20 11 133
1994081S11154 1994 23 SP MM USHA 1994-03-29 09:00:00 NR -26.4049 168.368 main 472 472 ________P_____ SH251994 -1 -26.4049 168.368 25 1002 TC 8 129
1994081S11154 1994 23 SP MM USHA 1994-03-29 12:00:00 NR -26.5000 168.500 25 1002 wellington main 485 454 ________O_____ -1 -26.5000 168.500 25 1002 3 18
1994081S11154 1994 23 SP MM USHA 1994-03-29 15:00:00 NR -26.1675 168.452 main 454 395 ________P_____ -1 -26.1675 168.452 25 1002 8 347
1994081S11154 1994 23 SP MM USHA 1994-03-29 18:00:00 NR -25.7000 168.300 25 1002 wellington main 395 360 ________O_____ -1 -25.7000 168.300 25 1002 8 340
1994081S11154 1994 23 SP MM USHA 1994-03-29 21:00:00 NR -25.4111 168.150 main 356 332 ________P_____ -1 -25.4111 168.150 25 1002 6 331
1994081S11154 1994 23 SP MM USHA 1994-03-30 00:00:00 NR -25.2000 168.000 25 1003 wellington main 332 307 ________O_____ -1 -25.2000 168.000 25 1003 5 332
1994081S11154 1994 23 SP MM USHA 1994-03-30 03:00:00 NR -24.9881 167.894 main 307 283 ________P_____ -1 -24.9881 167.894 4 337
1994081S11154 1994 23 SP MM USHA 1994-03-30 06:00:00 NR -24.8151 167.823 main 283 272 ________P_____ -1 -24.8151 167.823 3 343
1994081S11154 1994 23 SP MM USHA 1994-03-30 09:00:00 NR -24.6883 167.785 main 272 262 ________P_____ -1 -24.6883 167.785 2 347
1994081S11154 1994 23 SP MM USHA 1994-03-30 12:00:00 NR -24.6150 167.778 main 262 262 ________P_____ -1 -24.6150 167.778 1 13
1994081S11154 1994 23 SP MM USHA 1994-03-30 15:00:00 NR -24.6023 167.797 main 262 262 ________P_____ -1 -24.6023 167.797 1 128
1994081S11154 1994 23 SP MM USHA 1994-03-30 18:00:00 NR -24.6574 167.843 main 272 272 ________P_____ -1 -24.6574 167.843 2 150
1994081S11154 1994 23 SP MM USHA 1994-03-30 21:00:00 NR -24.7876 167.911 main 286 286 ________P_____ -1 -24.7876 167.911 4 157
1994081S11154 1994 23 SP MM USHA 1994-03-31 00:00:00 NR -25.0000 168.000 main 311 311 ________O_____ -1 -25.0000 168.000 25 1003 5 160
1994081S11154 1994 23 SP MM USHA 1994-03-31 03:00:00 NR -25.3002 168.119 main 346 346 ________P_____ -1 -25.3002 168.119 25 1003 7 161
1994081S11154 1994 23 SP MM USHA 1994-03-31 06:00:00 NR -25.6720 168.257 main 395 395 ________P_____ -1 -25.6720 168.257 25 1003 8 163
1994081S11154 1994 23 SP MM USHA 1994-03-31 09:00:00 NR -26.0828 168.391 main 440 440 ________P_____ -1 -26.0828 168.391 25 1003 9 165
1994081S11154 1994 23 SP MM USHA 1994-03-31 12:00:00 NR -26.5000 168.500 25 1004 wellington main 485 485 ________O_____ -1 -26.5000 168.500 25 1004 8 172
1994081S11154 1994 23 SP MM USHA 1994-03-31 15:00:00 NR -26.8472 168.515 main 517 517 ________P_____ -1 -26.8472 168.515 25 1004 7 179
1994081S11154 1994 23 SP MM USHA 1994-03-31 18:00:00 NR -27.1987 168.507 main 560 560 ________P_____ -1 -27.1987 168.507 25 1004 7 0
1994081S11154 1994 23 SP MM USHA 1994-03-31 21:00:00 NR -27.5758 168.521 main 602 602 ________P_____ -1 -27.5758 168.521 25 1004 8 175
1994081S11154 1994 23 SP MM USHA 1994-04-01 00:00:00 NR -28.0000 168.600 25 1005 wellington main 648 648 ________O_____ -1 -28.0000 168.600 25 1005 10 169
1994081S11154 1994 23 SP MM USHA 1994-04-01 03:00:00 NR -28.5282 168.734 main 704 701 ________P_____ -1 -28.5282 168.734 25 1006 11 161
1994081S11154 1994 23 SP MM USHA 1994-04-01 06:00:00 NR -29.0000 169.000 25 1007 wellington main 701 653 ________O_____ -1 -29.0000 169.000 25 1007 10 142
1994081S11154 1994 23 SP MM USHA 1994-04-01 09:00:00 NR -29.2872 169.418 main 653 608 ________P_____ -1 -29.2872 169.418 25 1006 10 120
1994081S11154 1994 23 SP MM USHA 1994-04-01 12:00:00 NR -29.5000 170.000 25 1005 wellington main 608 553 ________O_____ -1 -29.5000 170.000 25 1005 12 114
1994081S11154 1994 23 SP MM USHA 1994-04-01 15:00:00 NR -29.7876 170.712 main 553 512 ________P_____ -1 -29.7876 170.712 25 1004 14 111
1994081S11154 1994 23 SP MM USHA 1994-04-01 18:00:00 NR -30.0000 171.500 25 1003 wellington main 512 503 ________O_____ -1 -30.0000 171.500 25 1003 14 99
1994081S11154 1994 23 SP MM USHA 1994-04-01 21:00:00 NR -30.0036 172.252 main 502 501 ________P_____ -1 -30.0036 172.252 25 1002 13 90
1994081S11154 1994 23 SP MM USHA 1994-04-02 00:00:00 NR -30.0000 173.000 25 1002 wellington main 501 492 ________O_____ -1 -30.0000 173.000 25 1002 13 96
1994081S11154 1994 23 SP MM USHA 1994-04-02 03:00:00 NR -30.1490 173.753 main 496 473 ________P_____ -1 -30.1490 173.753 25 1002 14 109
1994081S11154 1994 23 SP MM USHA 1994-04-02 06:00:00 NR -30.4390 174.505 main 478 450 ________P_____ -1 -30.4390 174.505 25 1002 15 120
1994081S11154 1994 23 SP MM USHA 1994-04-02 09:00:00 NR -30.8844 175.255 main 455 432 ________P_____ -1 -30.8844 175.255 25 1002 17 130
1994081S11154 1994 23 SP MM USHA 1994-04-02 12:00:00 NR -31.5000 176.000 25 1002 wellington main 435 402 ________O_____ -1 -31.5000 176.000 25 1002 18 138
1994081S11154 1994 23 SP MM USHA 1994-04-02 15:00:00 NR -32.2006 176.649 main 402 369 ________P_____ -1 -32.2006 176.649 25 1001 19 145
1994081S11154 1994 23 SP MM USHA 1994-04-02 18:00:00 NR -33.0736 177.312 main 368 358 ________P_____ -1 -33.0736 177.312 25 1001 23 148
1994081S11154 1994 23 SP MM USHA 1994-04-02 21:00:00 NR -34.1101 178.068 main 364 272 ________P_____ -1 -34.1101 178.068 25 1000 26 148
1994081S11154 1994 23 SP MM USHA 1994-04-03 00:00:00 NR -35.3000 179.000 25 1000 wellington main 263 194 ________O_____ -1 -35.3000 179.000 25 1000 31 144
1994081S11154 1994 23 SP MM USHA 1994-04-03 03:00:00 NR -36.5894 180.278 main 193 192 ________P_____ -1 -36.5894 -179.722 27 998 34 143
1994081S11154 1994 23 SP MM USHA 1994-04-03 06:00:00 NR -38.0000 181.500 30 997 wellington main 256 256 ________O_____ -1 -38.0000 -178.500 30 997 33 151
1994081S11154 1994 23 SP MM USHA 1994-04-03 09:00:00 NR -39.4745 182.297 main 362 362 ________P_____ -1 -39.4745 -177.703 30 995 32 159
1994081S11154 1994 23 SP MM USHA 1994-04-03 12:00:00 NR -41.0000 183.000 30 994 wellington main 471 471 ________O_____ -1 -41.0000 -177.000 30 994 33 158
1994081S11154 1994 23 SP MM USHA 1994-04-03 15:00:00 NR -42.4979 183.895 main 615 615 ________P_____ -1 -42.4979 -176.105 30 992 33 154
1994081S11154 1994 23 SP MM USHA 1994-04-03 18:00:00 NR -44.0000 185.000 30 991 wellington main 786 786 ________O_____ -1 -44.0000 -175.000 30 991 35 149
1994081S11154 1994 23 SP MM USHA 1994-04-03 21:00:00 NR -45.5055 186.392 main 963 963 ________P_____ -1 -45.5055 -173.608 30 990 37 145
1994081S11154 1994 23 SP MM USHA 1994-04-04 00:00:00 NR -47.0000 188.000 30 990 wellington main 1149 ________O_____ -1 -47.0000 -172.000 30 990 37 144

Digital Typhoon Data and Search

About IBTrACS Database

This database is a web-friendly format of International Best Track Archive for Climate Stewardship (IBTrACS), a global best track data archive curated by NOAA dating back to 1842.

Updated: 2021-12-03